Time;durP1;ratioP1;P1;durP2;ratioP2;P2;SDS_P1;SDS_P2;PMS_P1;PMS_P2;Temp;Humidity;BMP_temperature;BMP_pressure;BME280_temperature;BME280_humidity;BME280_pressure;Samples;Min_cycle;Max_cycle;Signal;HPM_P1;HPM_P2
2021/07/17 00:02:23;;;;;;;;;12.80;10.80;;;;;19.99;99.87;99181.72;3254496;40;2791865;-56
2021/07/17 00:04:51;;;;;;;;;13.33;12.00;;;;;19.83;100.00;99174.34;3239790;40;3511661;-57
2021/07/17 00:07:20;;;;;;;;;14.67;11.33;;;;;19.87;100.00;99179.28;3260443;40;2789784;-57
2021/07/17 00:09:47;;;;;;;;;14.33;12.67;;;;;20.13;100.00;99190.06;3260277;40;2787693;-58
2021/07/17 00:12:15;;;;;;;;;13.00;11.33;;;;;20.18;100.00;99184.97;3260281;40;2786651;-58
2021/07/17 00:14:43;;;;;;;;;13.33;10.33;;;;;19.98;100.00;99171.81;3259271;40;2789791;-58
2021/07/17 00:17:11;;;;;;;;;13.00;11.00;;;;;20.02;100.00;99175.94;3255141;40;3519979;-57
2021/07/17 00:19:39;;;;;;;;;10.33;10.33;;;;;20.08;99.80;99165.19;3259943;40;2787700;-58
2021/07/17 00:22:07;;;;;;;;;10.67;10.67;;;;;20.11;100.00;99169.44;3255575;40;3514763;-58
2021/07/17 00:24:35;;;;;;;;;15.67;12.00;;;;;19.90;100.00;99178.94;3259232;40;2798355;-58
2021/07/17 00:27:03;;;;;;;;;12.00;10.33;;;;;19.94;100.00;99172.16;3255387;40;3517879;-57
2021/07/17 00:29:31;;;;;;;;;12.67;11.33;;;;;20.05;100.00;99173.72;3255374;40;3523103;-57
2021/07/17 00:31:58;;;;;;;;;12.00;12.00;;;;;20.01;100.00;99161.44;3255516;40;2791996;-57
2021/07/17 00:34:27;;;;;;;;;13.67;11.33;;;;;20.18;98.40;99170.50;3260112;40;2791862;-58
2021/07/17 00:36:55;;;;;;;;;9.00;8.00;;;;;20.22;97.95;99166.41;3247493;40;2734589;-58
2021/07/17 00:39:23;;;;;;;;;11.00;9.60;;;;;20.24;96.92;99158.91;3269809;40;2767890;-57
2021/07/17 00:41:53;;;;;;;;;10.67;9.33;;;;;20.07;99.07;99162.66;3240766;40;2762714;-57
2021/07/17 00:44:23;;;;;;;;;10.20;10.20;;;;;20.07;100.00;99168.09;3269295;40;2773117;-57
2021/07/17 00:46:51;;;;;;;;;10.00;9.67;;;;;20.19;99.36;99169.47;3240745;40;2766864;-58
2021/07/17 00:49:23;;;;;;;;;12.33;10.33;;;;;20.21;99.59;99164.69;3255511;40;2786671;-57
2021/07/17 00:51:50;;;;;;;;;9.00;9.00;;;;;20.03;100.00;99162.09;3252396;40;2748387;-57
2021/07/17 00:54:19;;;;;;;;;11.00;9.00;;;;;20.02;99.33;99159.56;3255309;40;2774183;-58
2021/07/17 00:56:48;;;;;;;;;9.67;9.00;;;;;19.97;100.00;99151.91;3247190;40;2760611;-57
2021/07/17 00:59:21;;;;;;;;;11.20;9.40;;;;;20.29;97.01;99151.06;3260651;40;2768928;-57
2021/07/17 01:01:53;;;;;;;;;13.00;10.67;;;;;20.20;97.69;99146.66;3240013;40;3494979;-57
2021/07/17 01:04:24;;;;;;;;;9.60;8.20;;;;;19.44;100.00;99162.09;3270309;40;2756448;-57
2021/07/17 01:06:52;;;;;;;;;9.00;9.00;;;;;19.06;100.00;99171.59;3258317;40;2733529;-58
2021/07/17 01:09:20;;;;;;;;;7.00;7.00;;;;;19.11;100.00;99173.84;3257439;40;2735623;-58
2021/07/17 01:11:47;;;;;;;;;10.67;6.67;;;;;19.70;100.00;99172.09;3248868;40;2756760;-57
2021/07/17 01:14:15;;;;;;;;;6.00;4.33;;;;;19.15;100.00;99161.63;3257360;40;2752296;-56
2021/07/17 01:16:43;;;;;;;;;6.67;6.67;;;;;19.12;100.00;99161.97;3258198;40;2738740;-57
2021/07/17 01:19:12;;;;;;;;;7.00;6.00;;;;;19.58;100.00;99151.59;3248731;40;2745270;-57
2021/07/17 01:21:40;;;;;;;;;6.00;5.33;;;;;19.39;100.00;99159.00;3257922;40;2750206;-57
2021/07/17 01:24:07;;;;;;;;;6.00;5.00;;;;;19.16;100.00;99160.59;3258276;40;2742918;-58
2021/07/17 01:26:35;;;;;;;;;4.67;4.67;;;;;19.29;100.00;99142.81;3257756;40;2737694;-58
2021/07/17 01:29:03;;;;;;;;;7.00;4.33;;;;;19.40;100.00;99129.91;3248775;40;2750191;-58
2021/07/17 01:31:30;;;;;;;;;5.33;5.33;;;;;19.78;100.00;99124.97;3258057;40;2741873;-57
2021/07/17 01:33:58;;;;;;;;;7.67;6.33;;;;;19.77;100.00;99140.44;3258129;40;2740808;-57
2021/07/17 01:36:26;;;;;;;;;6.33;6.00;;;;;19.76;100.00;99155.09;3258191;40;2735624;-57
2021/07/17 01:38:54;;;;;;;;;7.00;7.00;;;;;20.14;100.00;99159.09;3258246;40;2730419;-57
2021/07/17 01:41:25;;;;;;;;;8.20;7.00;;;;;20.24;100.00;99161.63;3270766;40;2738728;-57
2021/07/17 01:43:55;;;;;;;;;7.67;7.67;;;;;20.21;100.00;99164.69;3257950;40;2736695;-56
2021/07/17 01:46:23;;;;;;;;;6.67;6.67;;;;;20.12;100.00;99160.28;3257968;40;2733811;-56
2021/07/17 01:48:53;;;;;;;;;8.33;5.00;;;;;20.01;100.00;99163.31;3258169;40;2746055;-57
2021/07/17 01:51:22;;;;;;;;;5.67;5.00;;;;;19.91;100.00;99158.88;3257678;40;2742100;-58
2021/07/17 01:53:55;;;;;;;;;8.80;7.00;;;;;20.35;100.00;99138.63;3270402;40;2759581;-57
2021/07/17 01:56:25;;;;;;;;;7.00;7.00;;;;;19.99;100.00;99140.84;3258706;40;2725207;-57
2021/07/17 01:58:54;;;;;;;;;8.60;6.20;;;;;20.03;100.00;99144.91;3269816;40;2735604;-57
2021/07/17 02:01:25;;;;;;;;;4.40;4.40;;;;;20.13;100.00;99141.00;3269943;40;2742913;-57
2021/07/17 02:03:53;;;;;;;;;5.33;5.33;;;;;20.17;100.00;99158.75;3257615;40;2742907;-57
2021/07/17 02:06:28;;;;;;;;;7.00;7.00;;;;;20.21;100.00;99155.66;3270119;40;2743937;-58
2021/07/17 02:08:57;;;;;;;;;9.67;6.67;;;;;20.43;100.00;99154.13;3257448;40;2759573;-57
2021/07/17 02:11:25;;;;;;;;;6.67;5.67;;;;;20.38;100.00;99154.66;3249099;40;2746083;-57
2021/07/17 02:13:55;;;;;;;;;6.00;5.00;;;;;20.31;100.00;99151.75;3270131;40;2742906;-57
2021/07/17 02:16:25;;;;;;;;;6.67;6.00;;;;;20.10;100.00;99154.13;3257086;40;2726256;-56
2021/07/17 02:18:53;;;;;;;;;9.00;6.00;;;;;20.07;100.00;99160.78;3249706;40;2730408;-57
2021/07/17 02:21:22;;;;;;;;;6.40;6.40;;;;;20.04;100.00;99173.88;3260745;40;2731452;-57
2021/07/17 02:23:49;;;;;;;;;7.00;7.00;;;;;19.90;100.00;99189.84;3257776;40;2737949;-57
2021/07/17 02:26:17;;;;;;;;;8.00;6.33;;;;;19.99;100.00;99187.16;3257498;40;2739801;-57
2021/07/17 02:28:45;;;;;;;;;11.00;7.00;;;;;20.10;100.00;99195.00;3256913;40;2762710;-56
2021/07/17 02:31:12;;;;;;;;;6.67;6.67;;;;;20.20;100.00;99195.72;3257767;40;2731449;-56
2021/07/17 02:33:43;;;;;;;;;7.67;7.67;;;;;20.11;100.00;99192.09;3257580;40;2734585;-55
2021/07/17 02:36:10;;;;;;;;;8.00;8.00;;;;;20.02;100.00;99192.28;3257704;40;2733544;-57
2021/07/17 02:38:39;;;;;;;;;10.60;8.00;;;;;19.90;100.00;99200.75;3269725;40;2749215;-56
2021/07/17 02:41:11;;;;;;;;;11.40;10.00;;;;;20.14;100.00;99193.63;3253626;40;2785609;-57
2021/07/17 02:43:42;;;;;;;;;11.00;8.80;;;;;20.14;100.00;99171.84;3253982;40;2783518;-57
2021/07/17 02:46:12;;;;;;;;;10.00;7.67;;;;;19.85;100.00;99178.63;3242141;40;2737695;-57
2021/07/17 02:48:41;;;;;;;;;7.40;7.20;;;;;19.86;100.00;99182.19;3270088;40;2746020;-57
2021/07/17 02:51:10;;;;;;;;;11.20;8.80;;;;;19.88;100.00;99175.56;3252644;40;2747073;-56
2021/07/17 02:53:39;;;;;;;;;8.00;8.00;;;;;19.81;100.00;99163.63;3241219;40;2737718;-57
2021/07/17 02:56:07;;;;;;;;;8.33;8.33;;;;;19.63;100.00;99169.13;3246590;40;2737691;-56
2021/07/17 02:58:36;;;;;;;;;10.60;9.40;;;;;19.81;100.00;99163.63;3271045;40;2790813;-56
2021/07/17 03:01:05;;;;;;;;;11.40;8.80;;;;;19.99;100.00;99170.81;3255677;40;2766873;-56
2021/07/17 03:03:38;;;;;;;;;7.00;7.00;;;;;19.85;100.00;99170.44;3264414;40;3443908;-56
2021/07/17 03:06:07;;;;;;;;;10.60;10.40;;;;;19.85;100.00;99173.16;3270737;40;2782465;-56
2021/07/17 03:08:35;;;;;;;;;11.00;9.33;;;;;19.80;100.00;99172.81;3241249;40;2767929;-56
2021/07/17 03:11:03;;;;;;;;;8.60;7.00;;;;;20.09;100.00;99166.91;3271245;40;2738729;-56
2021/07/17 03:13:32;;;;;;;;;10.00;8.80;;;;;19.93;100.00;99150.50;3270154;40;2758542;-56
2021/07/17 03:16:01;;;;;;;;;11.67;10.00;;;;;19.82;100.00;99148.13;3239872;40;2787705;-56
2021/07/17 03:18:28;;;;;;;;;7.00;7.00;;;;;19.82;100.00;99151.69;3258630;40;2741865;-56
2021/07/17 03:20:56;;;;;;;;;11.67;10.00;;;;;19.90;100.00;99151.69;3256560;40;2784596;-57
2021/07/17 03:23:25;;;;;;;;;11.80;10.00;;;;;20.06;100.00;99155.47;3270562;40;2779620;-56
2021/07/17 03:25:53;;;;;;;;;11.67;9.00;;;;;19.73;100.00;99149.97;3242325;40;2774160;-55
2021/07/17 03:28:21;;;;;;;;;11.00;10.00;;;;;19.86;100.00;99124.97;3270794;40;2782465;-55
2021/07/17 03:30:49;;;;;;;;;12.33;9.33;;;;;19.77;100.00;99124.09;3240400;40;2774420;-55
2021/07/17 03:33:17;;;;;;;;;10.00;10.00;;;;;20.00;100.00;99131.63;3255848;40;2781455;-56
2021/07/17 03:35:46;;;;;;;;;10.60;10.00;;;;;19.90;100.00;99140.78;3270260;40;2791860;-57
2021/07/17 03:38:14;;;;;;;;;10.80;9.00;;;;;19.81;100.00;99154.59;3255428;40;2774147;-56
2021/07/17 03:40:43;;;;;;;;;12.00;10.00;;;;;19.10;100.00;99180.31;3239292;40;2787052;-56
2021/07/17 03:43:11;;;;;;;;;11.00;9.67;;;;;19.24;100.00;99193.31;3255693;40;2781515;-56
2021/07/17 03:45:39;;;;;;;;;11.00;9.33;;;;;19.16;100.00;99196.00;3257065;40;2780417;-56
2021/07/17 03:48:07;;;;;;;;;11.33;10.00;;;;;18.94;100.00;99219.16;3255747;40;2784640;-57
2021/07/17 03:50:35;;;;;;;;;11.67;11.00;;;;;18.92;100.00;99227.47;3255917;40;2789841;-56
2021/07/17 03:53:03;;;;;;;;;11.00;8.33;;;;;19.02;100.00;99216.50;3248603;40;2757517;-56
2021/07/17 03:55:31;;;;;;;;;13.00;8.67;;;;;19.27;100.00;99202.03;3257628;40;2756444;-56
2021/07/17 03:58:00;;;;;;;;;14.00;11.00;;;;;19.08;100.00;99200.34;3261497;40;2788972;-56
2021/07/17 04:00:28;;;;;;;;;15.33;11.67;;;;;19.34;100.00;99180.44;3240028;40;3519190;-55
2021/07/17 04:02:56;;;;;;;;;10.67;9.33;;;;;19.47;100.00;99174.53;3256307;40;2765849;-57
2021/07/17 04:05:24;;;;;;;;;12.33;12.33;;;;;19.42;100.00;99174.16;3259952;40;2787712;-56
2021/07/17 04:07:52;;;;;;;;;13.00;11.67;;;;;19.39;100.00;99179.94;3255641;40;3514812;-56
2021/07/17 04:10:20;;;;;;;;;16.67;15.67;;;;;19.68;100.00;99191.31;3258346;40;2818926;-56
2021/07/17 04:12:48;;;;;;;;;13.67;12.00;;;;;19.64;100.00;99199.94;3255509;40;3519959;-56
2021/07/17 04:15:16;;;;;;;;;16.00;13.00;;;;;19.93;100.00;99194.09;3255559;40;3538739;-56
2021/07/17 04:17:44;;;;;;;;;12.00;12.00;;;;;19.98;100.00;99193.63;3260361;40;2783534;-57
2021/07/17 04:20:12;;;;;;;;;14.00;12.00;;;;;20.03;100.00;99167.56;3259574;40;2791079;-56
2021/07/17 04:22:42;;;;;;;;;12.60;11.80;;;;;20.05;100.00;99164.69;3269699;40;2791863;-56
2021/07/17 04:25:11;;;;;;;;;12.00;12.00;;;;;20.13;100.00;99178.31;3239797;40;3513721;-56
2021/07/17 04:27:40;;;;;;;;;11.67;10.00;;;;;20.10;100.00;99174.06;3246541;40;2784583;-57
2021/07/17 04:30:09;;;;;;;;;11.33;11.33;;;;;20.05;100.00;99179.16;3260038;40;2786639;-56
2021/07/17 04:32:37;;;;;;;;;13.00;13.00;;;;;20.17;100.00;99164.19;3259766;40;2792101;-56
2021/07/17 04:35:07;;;;;;;;;11.00;11.00;;;;;20.04;100.00;99158.38;3251344;40;2790042;-54
2021/07/17 04:37:35;;;;;;;;;14.33;12.00;;;;;20.00;100.00;99154.28;3250357;40;2798113;-57
2021/07/17 04:40:05;;;;;;;;;15.00;13.33;;;;;20.00;100.00;99162.44;3259904;40;2791864;-56
2021/07/17 04:42:39;;;;;;;;;15.33;12.67;;;;;19.89;100.00;99166.34;3250420;40;2806486;-56
2021/07/17 04:45:08;;;;;;;;;10.33;9.67;;;;;19.66;100.00;99168.84;3255685;40;2766868;-56
2021/07/17 04:47:36;;;;;;;;;10.00;9.33;;;;;20.10;100.00;99162.31;3260763;40;2773125;-56
2021/07/17 04:50:05;;;;;;;;;9.67;9.00;;;;;20.07;100.00;99162.66;3260789;40;2767940;-56
2021/07/17 04:52:34;;;;;;;;;10.80;10.80;;;;;20.20;100.00;99168.47;3269230;40;2786691;-57
2021/07/17 04:55:03;;;;;;;;;13.00;12.00;;;;;19.97;100.00;99172.84;3230836;40;2786755;-56
2021/07/17 04:57:31;;;;;;;;;11.67;9.33;;;;;20.14;100.00;99174.56;3255541;40;3499388;-55
2021/07/17 04:59:59;;;;;;;;;13.00;12.00;;;;;20.34;100.00;99177.84;3255486;40;3510619;-55
2021/07/17 05:02:27;;;;;;;;;12.00;10.00;;;;;20.37;100.00;99181.06;3255233;40;3508524;-56
2021/07/17 05:04:55;;;;;;;;;12.67;12.67;;;;;20.39;100.00;99179.03;3255271;40;2786993;-56
2021/07/17 05:07:22;;;;;;;;;14.67;10.67;;;;;20.55;100.00;99188.25;3260023;40;2784592;-54
2021/07/17 05:09:51;;;;;;;;;11.40;11.00;;;;;20.53;100.00;99184.81;3269555;40;2790831;-56
2021/07/17 05:12:19;;;;;;;;;14.00;11.67;;;;;20.41;100.00;99181.59;3239533;40;3525176;-57
2021/07/17 05:14:47;;;;;;;;;17.67;13.67;;;;;20.55;100.00;99180.94;3255217;40;3546043;-57
2021/07/17 05:17:15;;;;;;;;;14.33;14.00;;;;;20.65;100.00;99183.50;3255196;40;3517903;-56
2021/07/17 05:19:42;;;;;;;;;12.00;12.00;;;;;20.78;100.00;99172.91;3255204;40;3525183;-55
2021/07/17 05:22:10;;;;;;;;;14.00;13.00;;;;;20.81;100.00;99171.72;3257544;40;2805400;-52
2021/07/17 05:24:38;;;;;;;;;14.00;14.00;;;;;20.93;100.00;99169.44;3260496;40;2798231;-49
2021/07/17 05:27:06;;;;;;;;;14.00;12.67;;;;;21.04;100.00;99185.47;3250322;40;3521040;-51
2021/07/17 05:29:33;;;;;;;;;13.67;12.00;;;;;21.12;100.00;99182.72;3262283;40;2791906;-52
2021/07/17 05:32:01;;;;;;;;;14.33;14.33;;;;;21.08;100.00;99188.72;3266227;40;2800223;-52
2021/07/17 05:34:30;;;;;;;;;16.00;15.00;;;;;21.05;100.00;99189.91;3260336;40;2814797;-52
2021/07/17 05:36:57;;;;;;;;;20.00;13.67;;;;;21.13;100.00;99184.44;3264762;40;2825226;-53
2021/07/17 05:39:25;;;;;;;;;18.00;15.00;;;;;21.25;100.00;99171.25;3262118;40;2827362;-53
2021/07/17 05:41:53;;;;;;;;;15.00;14.00;;;;;20.89;100.00;99173.56;3246589;40;2487764;-52
2021/07/17 05:44:22;;;;;;;;;16.33;14.67;;;;;21.15;100.00;99171.47;3260909;40;3539774;-53
2021/07/17 05:46:49;;;;;;;;;16.67;13.67;;;;;21.66;100.00;99180.16;3242322;40;2491946;-49
2021/07/17 05:49:17;;;;;;;;;18.33;16.67;;;;;21.74;100.00;99172.97;3261398;40;2829412;-53
2021/07/17 05:51:46;;;;;;;;;20.67;15.00;;;;;21.43;100.00;99166.44;3262318;40;3559620;-53
2021/07/17 05:54:15;;;;;;;;;10.33;10.33;;;;;21.41;100.00;99167.66;3245193;40;3515871;-52
2021/07/17 05:56:43;;;;;;;;;16.00;14.33;;;;;21.58;100.00;99174.72;3261719;40;3529416;-51
2021/07/17 05:59:11;;;;;;;;;17.00;17.00;;;;;22.39;95.99;99179.91;3244055;40;2827302;-55
2021/07/17 06:01:39;;;;;;;;;15.00;15.00;;;;;22.07;96.53;99179.09;3241469;40;2798137;-50
2021/07/17 06:04:08;;;;;;;;;18.33;17.33;;;;;22.29;94.11;99188.38;3260157;40;2485648;-52
2021/07/17 06:06:35;;;;;;;;;12.33;12.33;;;;;22.41;92.95;99186.91;3261160;40;3511677;-50
2021/07/17 06:09:03;;;;;;;;;15.00;13.67;;;;;21.87;97.03;99189.63;3248172;40;3499222;-50
2021/07/17 06:11:31;;;;;;;;;15.67;12.67;;;;;21.58;99.14;99185.66;3266550;40;2797368;-52
2021/07/17 06:13:59;;;;;;;;;18.50;17.50;;;;;22.18;99.27;99199.69;3258336;40;2832527;-50
2021/07/17 06:16:27;;;;;;;;;18.00;14.50;;;;;22.10;99.31;99189.66;3243283;40;2814802;-49
2021/07/17 06:18:55;;;;;;;;;21.50;16.00;;;;;21.87;99.50;99204.13;3246307;40;2825523;-51
2021/07/17 06:21:23;;;;;;;;;18.00;17.00;;;;;22.30;96.84;99201.00;3246292;40;2827326;-51
2021/07/17 06:23:51;;;;;;;;;18.50;18.50;;;;;22.42;96.24;99195.97;3246296;40;2834726;-51
2021/07/17 06:26:19;;;;;;;;;17.00;17.00;;;;;22.01;98.67;99204.41;3245009;40;2824172;-52
2021/07/17 06:28:48;;;;;;;;;18.00;18.00;;;;;22.49;97.40;99200.53;3247405;40;3573185;-51
2021/07/17 06:31:19;;;;;;;;;21.00;20.33;;;;;22.44;96.55;99196.63;3248864;40;3573122;-52
2021/07/17 06:33:47;;;;;;;;;21.67;18.00;;;;;22.45;96.72;99207.38;3249050;40;2485625;-51
2021/07/17 06:36:16;;;;;;;;;17.33;16.33;;;;;22.58;95.48;99212.25;3263306;40;2817970;-53
2021/07/17 06:38:45;;;;;;;;;24.67;21.33;;;;;22.76;94.21;99211.94;3266136;40;3572091;-52
2021/07/17 06:41:15;;;;;;;;;17.00;16.00;;;;;22.38;95.57;99209.16;3250299;40;3556455;-54
2021/07/17 06:43:43;;;;;;;;;18.00;18.00;;;;;22.65;95.77;99215.13;3261276;40;2833553;-49
2021/07/17 06:46:11;;;;;;;;;24.33;20.33;;;;;22.55;96.28;99226.28;3244376;40;3574187;-53
2021/07/17 06:48:39;;;;;;;;;17.00;17.00;;;;;22.36;96.64;99227.63;3244853;40;2829384;-52
2021/07/17 06:51:10;;;;;;;;;20.67;19.33;;;;;22.62;96.64;99231.88;3242673;40;2837719;-53
2021/07/17 06:53:38;;;;;;;;;20.00;18.50;;;;;22.97;93.54;99238.63;3253197;40;2828640;-52
2021/07/17 06:56:06;;;;;;;;;18.50;18.00;;;;;22.84;94.43;99224.69;3246163;40;2833603;-52
2021/07/17 06:58:34;;;;;;;;;19.00;17.50;;;;;22.95;93.37;99221.50;3247243;40;2831481;-51
2021/07/17 07:01:05;;;;;;;;;21.00;19.67;;;;;23.11;92.11;99220.53;3248476;40;2481860;-51
2021/07/17 07:03:33;;;;;;;;;15.33;15.33;;;;;23.51;91.44;99221.97;3261437;40;3536652;-54
2021/07/17 07:06:01;;;;;;;;;19.00;18.00;;;;;23.45;91.45;99215.34;3260076;40;2836182;-51
2021/07/17 07:08:32;;;;;;;;;20.00;17.00;;;;;23.44;91.89;99221.88;3237780;40;2831760;-52
2021/07/17 07:11:00;;;;;;;;;18.33;14.33;;;;;23.31;92.49;99210.72;3245227;40;3553319;-53
2021/07/17 07:13:28;;;;;;;;;20.00;17.33;;;;;23.63;92.09;99214.13;3250064;40;3561748;-50
2021/07/17 07:15:56;;;;;;;;;19.50;18.00;;;;;23.83;90.99;99217.16;3244215;40;2833560;-52
2021/07/17 07:18:27;;;;;;;;;16.00;16.00;;;;;23.80;89.44;99201.94;3245555;40;2821053;-49
2021/07/17 07:20:55;;;;;;;;;19.67;16.67;;;;;23.92;90.43;99201.44;3250611;40;3558565;-51
2021/07/17 07:23:22;;;;;;;;;17.00;16.50;;;;;23.93;89.55;99205.88;3246448;40;2831718;-52
2021/07/17 07:25:50;;;;;;;;;16.33;15.67;;;;;24.32;86.54;99214.56;3249515;40;2485664;-50
2021/07/17 07:28:18;;;;;;;;;17.00;15.00;;;;;23.96;89.24;99217.34;3264242;40;3540796;-50
2021/07/17 07:30:46;;;;;;;;;22.50;16.50;;;;;24.10;87.86;99227.41;3263437;40;2839798;-51
2021/07/17 07:33:15;;;;;;;;;24.33;21.33;;;;;24.34;90.24;99236.31;3246850;40;2837718;-52
2021/07/17 07:35:44;;;;;;;;;22.67;20.67;;;;;24.40;87.14;99235.53;3263423;40;2837754;-50
2021/07/17 07:38:11;;;;;;;;;21.00;21.00;;;;;24.14;89.06;99227.00;3262319;40;3579396;-53
2021/07/17 07:40:39;;;;;;;;;21.33;17.67;;;;;23.90;88.85;99222.72;3249297;40;3566895;-52
2021/07/17 07:43:07;;;;;;;;;21.33;19.67;;;;;24.20;87.04;99218.88;3249016;40;3566877;-48
2021/07/17 07:45:37;;;;;;;;;22.33;19.33;;;;;24.48;85.68;99231.84;3243504;40;2824193;-48
2021/07/17 07:48:06;;;;;;;;;21.33;19.00;;;;;24.04;88.91;99232.78;3259780;40;2835646;-49
2021/07/17 07:50:34;;;;;;;;;21.67;20.00;;;;;24.38;85.95;99234.91;3264643;40;3565814;-49
2021/07/17 07:53:02;;;;;;;;;19.00;19.00;;;;;24.24;87.36;99233.88;3249999;40;3563766;-50
2021/07/17 07:55:30;;;;;;;;;22.67;20.33;;;;;24.20;88.52;99226.25;3246065;40;2844059;-50
2021/07/17 07:57:58;;;;;;;;;22.33;18.67;;;;;24.06;88.69;99222.50;3265574;40;3577272;-49
2021/07/17 08:00:26;;;;;;;;;25.00;21.67;;;;;24.14;88.57;99225.13;3248427;40;3568986;-51
2021/07/17 08:02:55;;;;;;;;;27.67;20.33;;;;;24.35;87.40;99234.41;3249674;40;3590809;-52
2021/07/17 08:05:24;;;;;;;;;18.67;17.67;;;;;24.34;87.19;99235.47;3246446;40;3558609;-53
2021/07/17 08:07:54;;;;;;;;;23.00;20.00;;;;;24.52;86.89;99233.16;3239912;40;3571053;-50
2021/07/17 08:10:23;;;;;;;;;22.00;21.00;;;;;24.55;86.64;99230.03;3244419;40;2844128;-53
2021/07/17 08:12:51;;;;;;;;;18.67;17.00;;;;;23.87;86.88;99227.53;3255332;40;3555421;-53
2021/07/17 08:15:20;;;;;;;;;21.67;19.00;;;;;24.02;86.63;99226.69;3239721;40;3574455;-52
2021/07/17 08:17:47;;;;;;;;;23.33;21.67;;;;;24.53;83.02;99216.50;3249359;40;3561964;-50
2021/07/17 08:20:16;;;;;;;;;23.67;19.33;;;;;24.67;82.98;99216.63;3248290;40;3578342;-51
2021/07/17 08:22:44;;;;;;;;;24.33;22.00;;;;;24.04;86.33;99216.34;3249659;40;3577280;-49
2021/07/17 08:25:13;;;;;;;;;21.00;20.67;;;;;24.29;86.42;99220.44;3245719;40;3569977;-52
2021/07/17 08:27:41;;;;;;;;;27.67;22.67;;;;;24.50;85.98;99221.53;3249706;40;3590040;-52
2021/07/17 08:30:11;;;;;;;;;25.33;21.67;;;;;24.71;85.11;99218.78;3248482;40;3575200;-52
2021/07/17 08:32:55;;;;;;;;;27.00;25.00;;;;;24.93;83.80;99218.75;3247051;40;3591863;-50
2021/07/17 08:35:26;;;;;;;;;26.00;23.00;;;;;24.89;81.50;99214.72;3247432;40;3578329;-49
2021/07/17 08:37:54;;;;;;;;;27.25;24.25;;;;;24.80;83.33;99208.50;3249085;40;3596029;-50
2021/07/17 08:40:27;;;;;;;;;24.67;22.67;;;;;24.92;83.10;99211.56;3261657;40;3578321;-50
2021/07/17 08:42:55;;;;;;;;;30.00;26.00;;;;;24.88;81.70;99211.13;3249858;40;1902355;-50
2021/07/17 08:45:25;;;;;;;;;23.67;23.67;;;;;24.63;84.86;99215.31;3262281;40;3583541;-53
2021/07/17 08:47:57;;;;;;;;;25.33;22.33;;;;;24.73;85.21;99226.81;3237136;40;3580412;-51
2021/07/17 08:50:27;;;;;;;;;29.67;24.67;;;;;24.66;84.05;99223.16;3249130;40;3584571;-51
2021/07/17 08:52:58;;;;;;;;;26.00;23.00;;;;;24.86;80.88;99226.94;3246018;40;2833594;-49
2021/07/17 08:55:34;;;;;;;;;27.50;26.25;;;;;25.04;80.82;99222.84;3265205;40;3606776;-51
2021/07/17 08:58:04;;;;;;;;;28.25;25.50;;;;;25.02;81.99;99220.31;3259116;40;3597130;-52
2021/07/17 09:00:37;;;;;;;;;24.00;19.00;;;;;24.84;80.37;99228.19;3265018;40;3581462;-51
2021/07/17 09:03:10;;;;;;;;;28.00;23.67;;;;;24.99;80.71;99226.22;3241981;40;3589787;-50
2021/07/17 09:05:45;;;;;;;;;27.33;25.00;;;;;25.27;82.15;99222.63;3248881;40;3592160;-50
2021/07/17 09:08:15;;;;;;;;;23.00;22.67;;;;;25.11;81.27;99230.09;3239284;40;3575193;-51
2021/07/17 09:10:45;;;;;;;;;24.00;22.33;;;;;25.22;80.73;99227.88;3249100;40;3570031;-53
2021/07/17 09:13:34;;;;;;;;;30.00;24.00;;;;;25.42;80.20;99217.03;3246649;40;2854518;-52
2021/07/17 09:16:12;;;;;;;;;26.33;23.67;;;;;25.05;81.31;99225.41;3264772;40;3591863;-51
2021/07/17 09:18:55;;;;;;;;;19.00;18.33;;;;;25.53;79.85;99224.69;3239680;40;2829461;-51
2021/07/17 09:21:33;;;;;;;;;22.00;22.00;;;;;25.88;80.27;99224.69;3264429;40;3561652;-48
2021/07/17 09:24:05;;;;;;;;;27.67;24.67;;;;;25.24;78.76;99218.38;3247339;40;3581491;-50
2021/07/17 09:26:37;;;;;;;;;25.00;25.00;;;;;25.73;79.57;99216.56;3245034;40;3591903;-52
2021/07/17 09:29:11;;;;;;;;;28.00;22.33;;;;;26.01;76.98;99217.38;3248660;40;3565805;-52
2021/07/17 09:31:48;;;;;;;;;23.33;22.33;;;;;26.03;75.75;99215.22;3249122;40;3577296;-50
2021/07/17 09:34:21;;;;;;;;;27.25;27.25;;;;;25.50;78.52;99211.38;3242048;40;3598097;-51
2021/07/17 09:37:00;;;;;;;;;24.00;22.00;;;;;25.56;78.59;99200.38;3258959;40;3581501;-52
2021/07/17 09:39:31;;;;;;;;;28.25;26.25;;;;;25.88;76.60;99195.28;3249124;40;3601498;-49
2021/07/17 09:42:06;;;;;;;;;27.00;22.67;;;;;25.70;78.37;99193.06;3264806;40;3578325;-49
2021/07/17 09:44:36;;;;;;;;;26.25;26.00;;;;;25.90;76.80;99184.06;3248331;40;3600195;-50
2021/07/17 09:47:16;;;;;;;;;27.25;24.75;;;;;25.47;79.79;99185.13;3255832;40;3596271;-51
2021/07/17 09:49:44;;;;;;;;;22.00;21.67;;;;;25.25;78.78;99202.75;3265423;40;3566897;-51
2021/07/17 09:52:16;;;;;;;;;24.33;23.33;;;;;25.18;79.10;99209.03;3232274;40;2843223;-49
2021/07/17 09:55:14;;;;;;;;;30.00;23.33;;;;;25.40;79.43;99217.22;3264704;40;3581466;-48
2021/07/17 09:57:44;;;;;;;;;32.75;27.75;;;;;25.45;78.71;99225.72;3247766;40;3605451;-50
2021/07/17 10:00:15;;;;;;;;;26.33;26.33;;;;;25.69;78.18;99237.25;3262133;40;3587677;-48
2021/07/17 10:02:55;;;;;;;;;26.25;26.00;;;;;25.70;80.30;99247.19;3243736;40;3588770;-51
2021/07/17 10:05:38;;;;;;;;;27.67;26.33;;;;;25.90;79.55;99237.19;3261260;40;3587693;-52
2021/07/17 10:08:15;;;;;;;;;24.00;23.00;;;;;25.71;78.99;99237.91;3236764;40;3585608;-51
2021/07/17 10:10:47;;;;;;;;;29.25;27.25;;;;;25.93;79.46;99234.03;3255808;40;3606532;-53
2021/07/17 10:13:28;;;;;;;;;25.00;25.00;;;;;25.95;78.21;99209.91;3255774;40;3582471;-52
2021/07/17 10:15:57;;;;;;;;;27.00;27.00;;;;;26.04;78.57;99211.44;3248192;40;3593962;-50
2021/07/17 10:18:26;;;;;;;;;26.75;26.50;;;;;25.93;78.71;99211.16;3263988;40;3593939;-49
2021/07/17 10:20:57;;;;;;;;;26.33;23.33;;;;;26.31;75.71;99203.25;3263812;40;3584572;-52
2021/07/17 10:23:25;;;;;;;;;26.33;25.00;;;;;26.22;76.28;99210.00;3248373;40;3585602;-52
2021/07/17 10:25:53;;;;;;;;;29.00;28.33;;;;;26.16;76.11;99216.34;3238015;40;1891888;-50
2021/07/17 10:28:25;;;;;;;;;25.75;24.50;;;;;26.27;76.68;99218.47;3250818;40;3598120;-50
2021/07/17 10:30:53;;;;;;;;;17.50;16.50;;;;;26.16;76.15;99221.84;3248402;40;2820026;-49
2021/07/17 10:33:22;;;;;;;;;27.75;26.75;;;;;26.32;77.53;99226.97;3248320;40;3595497;-53
2021/07/17 10:35:56;;;;;;;;;28.50;24.50;;;;;26.98;76.33;99231.75;3258301;40;3590837;-53
2021/07/17 10:38:28;;;;;;;;;26.00;24.25;;;;;27.12;74.37;99221.56;3263539;40;3585601;-50
2021/07/17 10:40:58;;;;;;;;;29.00;28.75;;;;;26.86;75.08;99231.53;3249848;40;3600231;-49
2021/07/17 10:43:27;;;;;;;;;33.67;30.00;;;;;26.22;76.80;99237.53;3253583;40;3587688;-51
2021/07/17 10:45:55;;;;;;;;;28.00;27.33;;;;;26.13;78.28;99244.28;3239554;40;3583538;-52
2021/07/17 10:48:34;;;;;;;;;29.00;27.00;;;;;26.37;78.02;99240.97;3249424;40;3598160;-62
2021/07/17 10:51:22;;;;;;;;;29.50;29.50;;;;;26.40;76.99;99240.53;3248569;40;3597092;-61
2021/07/17 10:53:55;;;;;;;;;28.00;28.00;;;;;26.70;76.15;99234.72;3260050;40;3590829;-61
2021/07/17 10:56:28;;;;;;;;;30.00;27.67;;;;;26.55;76.43;99228.53;3248227;40;3573142;-60
2021/07/17 10:59:00;;;;;;;;;29.00;26.25;;;;;27.03;74.75;99223.69;3247051;40;3592891;-62
2021/07/17 11:01:57;;;;;;;;;27.67;27.67;;;;;26.63;77.33;99228.34;3255441;40;3592884;-61
2021/07/17 11:04:44;;;;;;;;;33.00;30.00;;;;;26.90;74.93;99230.03;3243777;40;3594975;-61
2021/07/17 11:07:19;;;;;;;;;25.50;25.00;;;;;26.86;73.85;99216.94;3240359;40;3598157;-62
2021/07/17 11:10:08;;;;;;;;;22.67;22.00;;;;;26.83;73.68;99223.72;3260475;40;3579442;-62
2021/07/17 11:12:43;;;;;;;;;28.75;27.50;;;;;27.10;73.13;99219.03;3245923;40;3597062;-62
2021/07/17 11:15:12;;;;;;;;;28.00;27.50;;;;;27.02;73.19;99221.16;3263500;40;3594983;-62